createdAt,value
2018-07-15T00:02:18.381Z,1.50
2018-07-15T00:04:45.563Z,1.40
2018-07-15T00:07:12.857Z,1.13
2018-07-15T00:09:40.105Z,1.27
2018-07-15T00:12:07.493Z,1.80
2018-07-15T00:14:34.666Z,1.40
2018-07-15T00:17:02.217Z,1.50
2018-07-15T00:19:29.389Z,1.33
2018-07-15T00:21:56.602Z,1.30
2018-07-15T00:24:24.075Z,1.30
2018-07-15T00:26:51.286Z,1.20
2018-07-15T00:29:18.462Z,1.30
2018-07-15T00:31:45.686Z,1.03
2018-07-15T00:34:13.147Z,1.37
2018-07-15T00:36:40.339Z,1.40
2018-07-15T00:39:07.629Z,1.50
2018-07-15T00:41:34.901Z,1.30
2018-07-15T00:44:02.350Z,1.37
2018-07-15T00:46:29.559Z,1.23
2018-07-15T00:48:57.118Z,1.33
2018-07-15T00:51:24.310Z,1.70
2018-07-15T00:53:53.542Z,1.50
2018-07-15T00:56:20.766Z,1.37
2018-07-15T00:58:47.953Z,0.83
2018-07-15T01:01:15.556Z,1.40
2018-07-15T01:03:42.769Z,1.23
2018-07-15T01:06:09.991Z,1.30
2018-07-15T01:08:37.482Z,1.47
2018-07-15T01:11:04.645Z,1.50
2018-07-15T01:13:31.840Z,1.10
2018-07-15T01:15:59.072Z,1.43
2018-07-15T01:18:26.653Z,1.50
2018-07-15T01:20:53.901Z,1.30
2018-07-15T01:23:21.090Z,1.00
2018-07-15T01:25:48.338Z,1.60
2018-07-15T01:28:15.564Z,1.20
2018-07-15T01:30:43.270Z,1.10
2018-07-15T01:33:10.504Z,0.90
2018-07-15T01:35:37.709Z,1.20
2018-07-15T01:38:05.144Z,1.67
2018-07-15T01:40:32.393Z,1.27
2018-07-15T01:42:59.581Z,1.13
2018-07-15T01:45:27.110Z,1.23
2018-07-15T01:47:54.329Z,1.10
2018-07-15T01:50:21.524Z,1.30
2018-07-15T01:52:49.030Z,1.20
2018-07-15T01:55:16.365Z,1.33
2018-07-15T01:57:43.570Z,0.90
2018-07-15T02:00:11.057Z,1.23
2018-07-15T02:02:38.321Z,1.27
2018-07-15T02:05:06.161Z,1.10
2018-07-15T02:07:33.954Z,1.10
2018-07-15T02:10:01.174Z,0.90
2018-07-15T02:12:28.382Z,1.20
2018-07-15T02:14:55.937Z,1.20
2018-07-15T02:17:23.113Z,0.80
2018-07-15T02:19:50.339Z,1.50
2018-07-15T02:22:17.543Z,1.13
2018-07-15T02:24:44.794Z,0.90
2018-07-15T02:27:11.998Z,1.30
2018-07-15T02:29:39.241Z,1.43
2018-07-15T02:32:06.471Z,1.00
2018-07-15T02:34:33.694Z,1.20
2018-07-15T02:37:00.910Z,1.50
2018-07-15T02:39:28.121Z,1.50
2018-07-15T02:41:55.689Z,1.10
2018-07-15T02:44:22.929Z,1.23
2018-07-15T02:46:50.129Z,1.23
2018-07-15T02:49:17.641Z,1.43
2018-07-15T02:51:44.856Z,1.10
2018-07-15T02:54:12.063Z,1.40
2018-07-15T02:56:39.625Z,1.07
2018-07-15T02:59:06.850Z,1.37
2018-07-15T03:01:34.033Z,1.17
2018-07-15T03:04:01.605Z,1.40
2018-07-15T03:06:28.890Z,1.33
2018-07-15T03:08:56.135Z,1.30
2018-07-15T03:11:23.789Z,1.03
2018-07-15T03:13:50.983Z,1.30
2018-07-15T03:16:18.211Z,1.10
2018-07-15T03:18:47.727Z,1.30
2018-07-15T03:21:14.885Z,1.50
2018-07-15T03:23:42.101Z,0.97
2018-07-15T03:26:09.585Z,1.50
2018-07-15T03:28:36.763Z,1.27
2018-07-15T03:31:03.977Z,1.77
2018-07-15T03:33:31.589Z,1.30
2018-07-15T03:35:58.811Z,1.20
2018-07-15T03:38:25.985Z,1.20
2018-07-15T03:40:53.641Z,1.37
2018-07-15T03:43:20.845Z,1.33
2018-07-15T03:45:48.029Z,1.37
2018-07-15T03:48:15.195Z,1.53
2018-07-15T03:50:42.374Z,1.50
2018-07-15T03:53:09.825Z,1.10
2018-07-15T03:55:37.016Z,1.60
2018-07-15T03:58:04.445Z,1.20
2018-07-15T04:00:32.013Z,1.50
2018-07-15T04:02:59.156Z,1.40
2018-07-15T04:05:26.341Z,1.10
2018-07-15T04:07:55.632Z,1.43
2018-07-15T04:10:22.794Z,1.07
2018-07-15T04:12:50.036Z,1.33
2018-07-15T04:15:17.209Z,1.30
2018-07-15T04:17:47.832Z,1.50
2018-07-15T04:20:15.034Z,1.63
2018-07-15T04:22:42.197Z,1.30
2018-07-15T04:25:09.702Z,1.60
2018-07-15T04:27:36.891Z,1.00
2018-07-15T04:30:04.120Z,1.67
2018-07-15T04:32:31.301Z,1.50
2018-07-15T04:34:58.509Z,1.30
2018-07-15T04:37:25.691Z,1.50
2018-07-15T04:39:53.557Z,1.20
2018-07-15T04:42:20.749Z,2.33
2018-07-15T04:44:47.957Z,1.27
2018-07-15T04:47:15.437Z,1.60
2018-07-15T04:49:42.630Z,1.03
2018-07-15T04:52:10.205Z,2.00
2018-07-15T04:54:37.705Z,1.70
2018-07-15T04:57:04.870Z,1.60
2018-07-15T04:59:32.055Z,1.20
2018-07-15T05:01:59.612Z,1.60
2018-07-15T05:04:26.817Z,1.63
2018-07-15T05:06:53.989Z,1.53
2018-07-15T05:09:21.192Z,1.20
2018-07-15T05:11:48.370Z,1.47
2018-07-15T05:14:15.542Z,1.57
2018-07-15T05:16:43.050Z,1.80
2018-07-15T05:19:10.253Z,0.90
2018-07-15T05:21:37.438Z,1.60
2018-07-15T05:24:04.949Z,2.23
2018-07-15T05:26:32.116Z,1.90
2018-07-15T05:28:59.277Z,1.90
2018-07-15T05:31:26.777Z,2.10
2018-07-15T05:33:53.936Z,1.67
2018-07-15T05:36:21.101Z,2.20
2018-07-15T05:38:54.301Z,1.60
2018-07-15T05:41:21.457Z,1.83
2018-07-15T05:43:49.017Z,2.07
2018-07-15T05:46:16.142Z,2.03
2018-07-15T05:48:43.325Z,1.53
2018-07-15T05:51:10.889Z,2.17
2018-07-15T05:53:38.063Z,1.47
2018-07-15T05:56:05.283Z,1.83
2018-07-15T05:58:32.765Z,1.80
2018-07-15T06:00:59.923Z,2.20
2018-07-15T06:03:27.104Z,2.05
2018-07-15T06:05:54.312Z,1.37
2018-07-15T06:08:21.477Z,1.90
2018-07-15T06:10:48.742Z,1.40
2018-07-15T06:13:16.114Z,1.87
2018-07-15T06:15:43.257Z,1.63
2018-07-15T06:18:10.422Z,2.03
2018-07-15T06:20:37.981Z,2.43
2018-07-15T06:23:05.190Z,1.50
2018-07-15T06:25:32.363Z,1.90
2018-07-15T06:27:59.861Z,1.73
2018-07-15T06:30:27.021Z,1.87
2018-07-15T06:32:54.217Z,2.37
2018-07-15T06:35:21.406Z,2.27
2018-07-15T06:37:48.560Z,2.80
2018-07-15T06:40:15.825Z,1.80
2018-07-15T06:42:42.984Z,2.67
2018-07-15T06:45:10.171Z,1.90
2018-07-15T06:47:37.868Z,2.00
2018-07-15T06:50:05.106Z,2.30
2018-07-15T06:52:32.278Z,2.20
2018-07-15T06:55:00.109Z,1.90
2018-07-15T06:57:27.301Z,2.63
2018-07-15T06:59:54.481Z,2.13
2018-07-15T07:02:21.648Z,2.53
2018-07-15T07:04:48.809Z,3.13
2018-07-15T07:07:15.971Z,2.30
2018-07-15T07:09:43.143Z,2.20
2018-07-15T07:12:10.324Z,2.43
2018-07-15T07:14:37.546Z,2.30
2018-07-15T07:17:04.736Z,2.40
2018-07-15T07:19:31.956Z,3.10
2018-07-15T07:21:59.109Z,2.43
2018-07-15T07:24:26.585Z,3.00
2018-07-15T07:26:53.769Z,2.27
2018-07-15T07:29:20.991Z,3.03
2018-07-15T07:31:48.466Z,2.80
2018-07-15T07:34:15.634Z,2.47
2018-07-15T07:36:42.800Z,2.57
2018-07-15T07:39:10.333Z,2.23
2018-07-15T07:41:37.515Z,3.00
2018-07-15T07:44:04.725Z,3.60
2018-07-15T07:46:31.987Z,2.70
2018-07-15T07:48:59.166Z,3.90
2018-07-15T07:51:26.436Z,4.40
2018-07-15T07:53:53.727Z,4.33
2018-07-15T07:56:20.885Z,3.47
2018-07-15T07:58:48.403Z,2.53
2018-07-15T08:01:15.625Z,3.57
2018-07-15T08:03:42.846Z,2.77
2018-07-15T08:06:10.078Z,2.97
2018-07-15T08:08:37.274Z,2.67
2018-07-15T08:11:04.465Z,3.73
2018-07-15T08:13:32.015Z,3.07
2018-07-15T08:15:59.197Z,3.60
2018-07-15T08:18:26.385Z,3.43
2018-07-15T08:20:53.563Z,3.23
2018-07-15T08:23:20.752Z,2.97
2018-07-15T08:25:47.929Z,3.40
2018-07-15T08:28:15.176Z,3.47
2018-07-15T08:30:53.912Z,2.87
2018-07-15T08:33:21.058Z,2.80
2018-07-15T08:35:48.247Z,2.53
2018-07-15T08:38:15.471Z,2.13
2018-07-15T08:40:42.817Z,2.73
2018-07-15T08:43:10.013Z,2.10
2018-07-15T08:45:37.183Z,1.80
2018-07-15T08:48:05.021Z,1.77
2018-07-15T08:50:32.207Z,2.40
2018-07-15T08:52:59.418Z,1.33
2018-07-15T08:55:26.659Z,2.13
2018-07-15T08:57:53.833Z,1.93
2018-07-15T09:00:21.392Z,1.97
2018-07-15T09:02:48.579Z,1.50
2018-07-15T09:05:15.759Z,1.50
2018-07-15T09:07:42.982Z,1.77
2018-07-15T09:10:10.189Z,1.50
2018-07-15T09:12:37.418Z,1.60
2018-07-15T09:15:04.570Z,1.60
2018-07-15T09:17:31.742Z,1.77
2018-07-15T09:19:58.938Z,1.33
2018-07-15T09:22:26.107Z,1.83
2018-07-15T09:24:53.577Z,1.63
2018-07-15T09:27:20.756Z,2.10
2018-07-15T09:29:47.917Z,1.70
2018-07-15T09:32:15.461Z,1.80
2018-07-15T09:34:42.633Z,1.20
2018-07-15T09:37:09.812Z,2.47
2018-07-15T09:39:36.986Z,1.63
2018-07-15T09:42:04.149Z,1.10
2018-07-15T09:44:31.309Z,1.80
2018-07-15T09:46:58.513Z,1.53
2018-07-15T09:49:25.738Z,1.70
2018-07-15T09:51:52.925Z,1.67
2018-07-15T09:54:20.161Z,1.30
2018-07-15T09:56:47.421Z,1.40
2018-07-15T09:59:14.579Z,1.73
2018-07-15T10:01:41.737Z,1.77
2018-07-15T10:04:09.073Z,1.80
2018-07-15T10:06:36.235Z,1.40
2018-07-15T10:09:04.073Z,1.43
2018-07-15T10:11:31.581Z,1.13
2018-07-15T10:13:58.737Z,1.20
2018-07-15T10:16:25.882Z,10.27
2018-07-15T10:18:53.400Z,11.57
2018-07-15T10:21:20.485Z,6.57
2018-07-15T10:23:47.642Z,4.30
2018-07-15T10:26:15.051Z,3.23
2018-07-15T10:28:42.237Z,2.80
2018-07-15T10:31:09.373Z,2.50
2018-07-15T10:33:40.684Z,2.13
2018-07-15T10:36:07.840Z,3.07
2018-07-15T10:38:35.009Z,2.50
2018-07-15T10:41:02.158Z,2.80
2018-07-15T10:43:29.713Z,2.73
2018-07-15T10:45:56.852Z,2.83
2018-07-15T10:48:24.007Z,2.83
2018-07-15T10:50:51.794Z,2.30
2018-07-15T10:53:18.953Z,1.87
2018-07-15T10:55:46.121Z,2.27
2018-07-15T10:58:13.254Z,2.03
2018-07-15T11:00:40.433Z,2.10
2018-07-15T11:03:07.639Z,1.50
2018-07-15T11:05:35.006Z,1.90
2018-07-15T11:08:02.175Z,1.70
2018-07-15T11:10:29.345Z,1.70
2018-07-15T11:12:56.805Z,2.00
2018-07-15T11:15:23.965Z,1.80
2018-07-15T11:17:51.141Z,1.62
2018-07-15T11:20:18.364Z,1.82
2018-07-15T11:22:45.526Z,1.70
2018-07-15T11:25:12.686Z,1.45
2018-07-15T11:27:39.875Z,1.90
2018-07-15T11:30:07.102Z,1.40
2018-07-15T11:32:34.294Z,1.25
2018-07-15T11:35:01.531Z,1.67
2018-07-15T11:37:28.740Z,1.65
2018-07-15T11:39:55.929Z,1.53
2018-07-15T11:42:23.086Z,1.17
2018-07-15T11:44:50.553Z,1.80
2018-07-15T11:47:17.711Z,1.50
2018-07-15T11:49:44.886Z,1.42
2018-07-15T11:52:12.055Z,1.77
2018-07-15T11:54:39.297Z,1.22
2018-07-15T11:57:06.668Z,2.08
2018-07-15T11:59:33.965Z,1.12
2018-07-15T12:02:01.105Z,1.47
2018-07-15T12:04:28.322Z,1.50
2018-07-15T12:06:55.545Z,1.15
2018-07-15T12:09:22.720Z,0.98
2018-07-15T12:11:49.871Z,1.42
2018-07-15T12:14:17.038Z,1.27
2018-07-15T12:16:44.345Z,1.37
2018-07-15T12:19:11.853Z,1.12
2018-07-15T12:21:39.018Z,1.60
2018-07-15T12:24:06.265Z,1.00
2018-07-15T12:26:33.723Z,1.30
2018-07-15T12:29:00.875Z,1.27
2018-07-15T12:31:28.040Z,1.40
2018-07-15T12:33:55.504Z,1.00
2018-07-15T12:36:22.704Z,1.40
2018-07-15T12:38:49.902Z,1.20
2018-07-15T12:41:19.425Z,1.60
2018-07-15T12:43:46.619Z,1.50
2018-07-15T12:46:13.774Z,1.30
2018-07-15T12:48:40.988Z,0.93
2018-07-15T12:51:08.138Z,1.30
2018-07-15T12:53:35.637Z,0.72
2018-07-15T12:56:02.844Z,1.32
2018-07-15T12:58:30.010Z,1.07
2018-07-15T13:00:57.154Z,1.05
2018-07-15T13:03:24.281Z,1.17
2018-07-15T13:05:51.451Z,1.10
2018-07-15T13:08:19.053Z,0.80
2018-07-15T13:10:46.230Z,1.15
2018-07-15T13:13:13.460Z,1.10
2018-07-15T13:15:40.929Z,1.20
2018-07-15T13:18:08.093Z,0.85
2018-07-15T13:20:35.242Z,1.07
2018-07-15T13:23:02.802Z,0.65
2018-07-15T13:25:29.969Z,0.93
2018-07-15T13:27:57.126Z,0.78
2018-07-15T13:30:24.581Z,0.82
2018-07-15T13:32:51.761Z,1.20
2018-07-15T13:35:18.989Z,1.00
2018-07-15T13:37:46.148Z,0.72
2018-07-15T13:40:13.326Z,0.80
2018-07-15T13:42:40.504Z,1.32
2018-07-15T13:45:07.749Z,1.02
2018-07-15T13:47:34.907Z,1.10
2018-07-15T13:50:02.101Z,0.80
2018-07-15T13:52:29.265Z,1.00
2018-07-15T13:54:56.386Z,1.00
2018-07-15T13:57:23.542Z,1.10
2018-07-15T13:59:50.701Z,1.10
2018-07-15T14:02:17.858Z,1.15
2018-07-15T14:04:45.030Z,0.93
2018-07-15T14:07:12.174Z,1.22
2018-07-15T14:09:39.368Z,1.00
2018-07-15T14:12:06.505Z,0.98
2018-07-15T14:14:33.650Z,1.40
2018-07-15T14:17:00.821Z,1.02
2018-07-15T14:19:28.000Z,1.12
2018-07-15T14:21:55.150Z,1.52
2018-07-15T14:24:22.680Z,1.05
2018-07-15T14:26:49.845Z,1.10
2018-07-15T14:29:17.062Z,1.32
2018-07-15T14:31:44.206Z,1.25
2018-07-15T14:34:11.393Z,1.80
2018-07-15T14:36:38.639Z,1.52
2018-07-15T14:39:05.890Z,1.50
2018-07-15T14:41:33.050Z,1.70
2018-07-15T14:44:00.237Z,1.42
2018-07-15T14:46:27.453Z,1.72
2018-07-15T14:48:54.885Z,1.95
2018-07-15T14:51:22.055Z,1.95
2018-07-15T14:53:49.214Z,2.05
2018-07-15T14:56:16.754Z,1.60
2018-07-15T14:58:43.890Z,2.02
2018-07-15T15:01:11.025Z,1.80
2018-07-15T15:03:38.209Z,1.70
2018-07-15T15:06:05.338Z,2.00
2018-07-15T15:08:32.550Z,1.55
2018-07-15T15:10:59.694Z,1.70
2018-07-15T15:13:26.834Z,1.40
2018-07-15T15:15:53.984Z,1.20
2018-07-15T15:18:21.459Z,1.65
2018-07-15T15:20:48.608Z,1.30
2018-07-15T15:23:15.721Z,1.42
2018-07-15T15:25:42.988Z,1.10
2018-07-15T15:28:10.106Z,1.77
2018-07-15T15:30:37.255Z,2.47
2018-07-15T15:33:04.705Z,2.00
2018-07-15T15:35:31.839Z,2.00
2018-07-15T15:37:58.973Z,2.47
2018-07-15T15:40:26.174Z,1.65
2018-07-15T15:42:53.291Z,1.82
2018-07-15T15:45:20.429Z,1.60
2018-07-15T15:47:47.949Z,1.62
2018-07-15T15:50:15.069Z,1.50
2018-07-15T15:52:42.214Z,1.60
2018-07-15T15:55:09.664Z,1.67
2018-07-15T15:57:36.845Z,1.90
2018-07-15T16:00:04.170Z,1.35
2018-07-15T16:02:31.645Z,1.42
2018-07-15T16:04:58.814Z,2.27
2018-07-15T16:07:25.961Z,2.55
2018-07-15T16:09:53.425Z,2.42
2018-07-15T16:12:20.611Z,2.77
2018-07-15T16:14:47.798Z,1.72
2018-07-15T16:17:14.946Z,1.95
2018-07-15T16:19:42.122Z,1.52
2018-07-15T16:22:09.253Z,1.37
2018-07-15T16:24:36.411Z,1.90
2018-07-15T16:27:03.857Z,1.07
2018-07-15T16:29:30.993Z,1.67
2018-07-15T16:31:58.137Z,1.25
2018-07-15T16:34:25.271Z,1.37
2018-07-15T16:36:52.458Z,1.50
2018-07-15T16:39:19.589Z,1.30
2018-07-15T16:41:46.800Z,1.45
2018-07-15T16:44:13.969Z,1.30
2018-07-15T16:46:41.106Z,1.40
2018-07-15T16:49:08.240Z,0.85
2018-07-15T16:51:35.382Z,0.85
2018-07-15T16:54:02.525Z,1.05
2018-07-15T16:56:29.709Z,1.25
2018-07-15T16:58:56.842Z,1.47
2018-07-15T17:01:24.343Z,1.40
2018-07-15T17:03:51.497Z,1.32
2018-07-15T17:06:18.638Z,1.50
2018-07-15T17:08:45.777Z,1.37
2018-07-15T17:11:12.989Z,1.27
2018-07-15T17:13:40.118Z,1.22
2018-07-15T17:16:07.297Z,1.60
2018-07-15T17:18:34.837Z,1.87
2018-07-15T17:21:01.983Z,1.75
2018-07-15T17:23:29.250Z,2.20
2018-07-15T17:25:56.817Z,1.70
2018-07-15T17:28:23.942Z,1.60
2018-07-15T17:30:51.091Z,1.37
2018-07-15T17:33:18.589Z,0.93
2018-07-15T17:35:45.735Z,1.30
2018-07-15T17:38:12.867Z,1.40
2018-07-15T17:40:40.101Z,1.90
2018-07-15T17:43:07.146Z,1.37
2018-07-15T17:45:34.321Z,2.37
2018-07-15T17:48:01.509Z,2.05
2018-07-15T17:50:29.155Z,1.75
2018-07-15T17:52:56.409Z,1.70
2018-07-15T17:55:23.866Z,1.80
2018-07-15T17:57:51.084Z,1.60
2018-07-15T18:00:18.871Z,1.95
2018-07-15T18:02:46.402Z,1.00
2018-07-15T18:05:13.570Z,1.57
2018-07-15T18:07:40.726Z,1.57
2018-07-15T18:10:07.925Z,1.82
2018-07-15T18:12:35.080Z,1.45
2018-07-15T18:15:02.295Z,1.70
2018-07-15T18:17:29.512Z,1.72
2018-07-15T18:19:56.756Z,1.60
2018-07-15T18:22:23.882Z,1.60
2018-07-15T18:24:51.033Z,1.40
2018-07-15T18:27:18.215Z,0.90
2018-07-15T18:29:45.352Z,1.37
2018-07-15T18:32:12.500Z,1.40
2018-07-15T18:34:39.625Z,1.15
2018-07-15T18:37:06.768Z,1.15
2018-07-15T18:39:33.905Z,1.40
2018-07-15T18:42:01.058Z,1.17
2018-07-15T18:44:28.571Z,1.32
2018-07-15T18:46:55.768Z,1.10
2018-07-15T18:49:23.106Z,1.27
2018-07-15T18:51:50.753Z,1.30
2018-07-15T18:54:17.951Z,1.30
2018-07-15T18:56:45.169Z,1.00
2018-07-15T18:59:12.713Z,1.67
2018-07-15T19:01:39.897Z,1.25
2018-07-15T19:04:07.066Z,1.23
2018-07-15T19:06:34.254Z,1.00
2018-07-15T19:09:01.496Z,1.23
2018-07-15T19:11:28.697Z,1.30
2018-07-15T19:13:55.906Z,1.30
2018-07-15T19:16:23.099Z,1.30
2018-07-15T19:18:50.289Z,1.05
2018-07-15T19:21:17.466Z,1.17
2018-07-15T19:23:44.586Z,1.10
2018-07-15T19:26:11.789Z,0.93
2018-07-15T19:28:45.129Z,1.30
2018-07-15T19:31:12.310Z,0.97
2018-07-15T19:33:39.472Z,1.30
2018-07-15T19:36:07.025Z,1.13
2018-07-15T19:38:34.523Z,1.20
2018-07-15T19:41:01.694Z,1.23
2018-07-15T19:43:28.852Z,1.20
2018-07-15T19:45:56.014Z,1.40
2018-07-15T19:48:23.248Z,1.50
2018-07-15T19:50:50.647Z,1.77
2018-07-15T19:53:18.074Z,1.50
2018-07-15T19:55:45.425Z,2.20
2018-07-15T19:58:13.041Z,1.80
2018-07-15T20:00:40.221Z,2.90
2018-07-15T20:03:07.384Z,2.60
2018-07-15T20:05:34.570Z,2.40
2018-07-15T20:08:01.746Z,2.33
2018-07-15T20:10:29.021Z,1.67
2018-07-15T20:12:56.252Z,2.00
2018-07-15T20:15:24.064Z,1.07
2018-07-15T20:17:51.241Z,1.53
2018-07-15T20:20:18.410Z,1.17
2018-07-15T20:22:45.663Z,1.77
2018-07-15T20:25:12.891Z,1.00
2018-07-15T20:27:40.110Z,1.60
2018-07-15T20:30:07.311Z,1.50
2018-07-15T20:32:34.517Z,1.20
2018-07-15T20:35:02.090Z,1.60
2018-07-15T20:37:29.300Z,1.80
2018-07-15T20:39:56.877Z,1.27
2018-07-15T20:42:24.034Z,1.70
2018-07-15T20:44:51.183Z,1.30
2018-07-15T20:47:18.352Z,1.40
2018-07-15T20:49:45.571Z,1.17
2018-07-15T20:52:12.742Z,1.40
2018-07-15T20:54:39.917Z,1.43
2018-07-15T20:57:07.152Z,1.37
2018-07-15T20:59:34.312Z,1.20
2018-07-15T21:02:01.510Z,1.53
2018-07-15T21:04:28.733Z,1.30
2018-07-15T21:06:55.956Z,1.23
2018-07-15T21:09:23.154Z,1.30
2018-07-15T21:11:50.374Z,1.27
2018-07-15T21:14:17.517Z,1.17
2018-07-15T21:16:44.701Z,1.23
2018-07-15T21:19:11.952Z,1.13
2018-07-15T21:21:39.053Z,2.03
2018-07-15T21:24:06.229Z,1.30
2018-07-15T21:26:34.297Z,1.63
2018-07-15T21:29:01.456Z,1.53
2018-07-15T21:31:28.668Z,1.47
2018-07-15T21:33:55.845Z,1.20
2018-07-15T21:36:23.045Z,2.03
2018-07-15T21:38:50.174Z,1.30
2018-07-15T21:41:17.329Z,1.77
2018-07-15T21:43:45.255Z,1.37
2018-07-15T21:46:12.423Z,1.60
2018-07-15T21:48:39.578Z,2.10
2018-07-15T21:51:06.830Z,1.40
2018-07-15T21:53:33.925Z,1.30
2018-07-15T21:56:01.079Z,1.80
2018-07-15T21:58:28.237Z,1.40
2018-07-15T22:00:55.830Z,1.83
2018-07-15T22:03:23.688Z,1.60
2018-07-15T22:05:50.860Z,1.40
2018-07-15T22:08:29.605Z,1.70
2018-07-15T22:10:57.143Z,1.03
2018-07-15T22:13:24.309Z,1.67
2018-07-15T22:15:51.469Z,1.70
2018-07-15T22:18:19.019Z,1.60
2018-07-15T22:20:46.170Z,2.00
2018-07-15T22:23:13.333Z,1.40
2018-07-15T22:25:40.791Z,1.63
2018-07-15T22:28:07.938Z,1.37
2018-07-15T22:30:35.082Z,1.80
2018-07-15T22:33:02.237Z,1.37
2018-07-15T22:35:29.409Z,2.03
2018-07-15T22:37:56.869Z,1.20
2018-07-15T22:40:24.017Z,1.90
2018-07-15T22:42:51.161Z,1.33
2018-07-15T22:45:18.379Z,1.90
2018-07-15T22:47:45.918Z,1.30
2018-07-15T22:50:13.087Z,2.00
2018-07-15T22:52:40.271Z,1.70
2018-07-15T22:55:07.525Z,1.60
2018-07-15T22:57:34.701Z,1.70
2018-07-15T23:00:02.205Z,1.70
2018-07-15T23:02:29.381Z,1.90
2018-07-15T23:05:37.217Z,1.93
2018-07-15T23:08:04.977Z,1.40
2018-07-15T23:10:32.181Z,1.90
2018-07-15T23:12:59.778Z,1.90
2018-07-15T23:15:27.001Z,1.50
2018-07-15T23:17:54.170Z,1.60
2018-07-15T23:20:21.346Z,2.03
2018-07-15T23:22:48.538Z,2.10
2018-07-15T23:25:15.724Z,1.50
2018-07-15T23:27:42.882Z,2.23
2018-07-15T23:30:12.469Z,2.37
2018-07-15T23:32:39.661Z,1.93
2018-07-15T23:35:07.166Z,2.30
2018-07-15T23:37:34.857Z,1.50
2018-07-15T23:40:02.045Z,2.07
2018-07-15T23:42:29.213Z,2.23
2018-07-15T23:46:25.959Z,1.70
2018-07-15T23:48:53.094Z,1.60
2018-07-15T23:51:20.242Z,1.60
2018-07-15T23:53:47.436Z,2.37
2018-07-15T23:56:14.587Z,1.83
2018-07-15T23:58:42.054Z,1.93
